sensor_id;sensor_type;location;lat;lon;timestamp;pressure;altitude;pressure_sealevel;temperature;humidity
13867;BME280;7003;46.982;15.248;2022-07-18T00:02:27;98108.44;;;15.84;100.00
13867;BME280;7003;46.982;15.248;2022-07-18T00:04:55;98113.81;;;15.84;100.00
13867;BME280;7003;46.982;15.248;2022-07-18T00:07:22;98108.88;;;15.73;100.00
13867;BME280;7003;46.982;15.248;2022-07-18T00:09:50;98104.75;;;15.88;100.00
13867;BME280;7003;46.982;15.248;2022-07-18T00:12:18;98112.00;;;15.63;100.00
13867;BME280;7003;46.982;15.248;2022-07-18T00:14:47;98114.69;;;15.63;100.00
13867;BME280;7003;46.982;15.248;2022-07-18T00:17:17;98112.34;;;15.62;100.00
13867;BME280;7003;46.982;15.248;2022-07-18T00:19:44;98104.00;;;15.43;100.00
13867;BME280;7003;46.982;15.248;2022-07-18T00:22:15;98107.66;;;15.26;100.00
13867;BME280;7003;46.982;15.248;2022-07-18T00:24:44;98109.44;;;15.22;100.00
13867;BME280;7003;46.982;15.248;2022-07-18T00:27:13;98108.25;;;15.31;100.00
13867;BME280;7003;46.982;15.248;2022-07-18T00:29:41;98104.63;;;15.15;100.00
13867;BME280;7003;46.982;15.248;2022-07-18T00:32:10;98110.00;;;14.94;100.00
13867;BME280;7003;46.982;15.248;2022-07-18T00:34:37;98111.50;;;15.04;100.00
13867;BME280;7003;46.982;15.248;2022-07-18T00:37:07;98106.75;;;15.10;100.00
13867;BME280;7003;46.982;15.248;2022-07-18T00:39:36;98118.13;;;15.07;100.00
13867;BME280;7003;46.982;15.248;2022-07-18T00:42:03;98112.44;;;15.08;100.00
13867;BME280;7003;46.982;15.248;2022-07-18T00:44:33;98112.88;;;15.10;100.00
13867;BME280;7003;46.982;15.248;2022-07-18T00:47:01;98120.72;;;14.94;100.00
13867;BME280;7003;46.982;15.248;2022-07-18T00:49:31;98121.66;;;14.98;100.00
13867;BME280;7003;46.982;15.248;2022-07-18T00:51:58;98115.22;;;15.12;100.00
13867;BME280;7003;46.982;15.248;2022-07-18T00:54:25;98110.84;;;15.07;100.00
13867;BME280;7003;46.982;15.248;2022-07-18T00:56:54;98115.84;;;14.96;100.00
13867;BME280;7003;46.982;15.248;2022-07-18T00:59:24;98120.88;;;14.98;100.00
13867;BME280;7003;46.982;15.248;2022-07-18T01:02:12;98112.91;;;14.89;100.00
13867;BME280;7003;46.982;15.248;2022-07-18T01:04:40;98112.97;;;14.81;100.00
13867;BME280;7003;46.982;15.248;2022-07-18T01:07:11;98120.69;;;14.82;100.00
13867;BME280;7003;46.982;15.248;2022-07-18T01:09:41;98115.38;;;14.94;100.00
13867;BME280;7003;46.982;15.248;2022-07-18T01:12:10;98113.69;;;14.90;100.00
13867;BME280;7003;46.982;15.248;2022-07-18T01:14:38;98107.31;;;14.82;100.00
13867;BME280;7003;46.982;15.248;2022-07-18T01:17:14;98108.88;;;14.83;100.00
13867;BME280;7003;46.982;15.248;2022-07-18T01:19:45;98107.09;;;14.87;100.00
13867;BME280;7003;46.982;15.248;2022-07-18T01:22:16;98108.66;;;14.88;100.00
13867;BME280;7003;46.982;15.248;2022-07-18T01:24:46;98111.16;;;14.93;100.00
13867;BME280;7003;46.982;15.248;2022-07-18T01:27:14;98112.13;;;14.89;100.00
13867;BME280;7003;46.982;15.248;2022-07-18T01:29:42;98116.59;;;14.85;100.00
13867;BME280;7003;46.982;15.248;2022-07-18T01:32:13;98113.91;;;14.85;100.00
13867;BME280;7003;46.982;15.248;2022-07-18T01:34:41;98113.06;;;14.72;100.00
13867;BME280;7003;46.982;15.248;2022-07-18T01:37:11;98112.38;;;14.63;100.00
13867;BME280;7003;46.982;15.248;2022-07-18T01:39:40;98107.44;;;14.65;100.00
13867;BME280;7003;46.982;15.248;2022-07-18T01:42:09;98108.22;;;14.66;100.00
13867;BME280;7003;46.982;15.248;2022-07-18T01:44:38;98114.13;;;14.59;100.00
13867;BME280;7003;46.982;15.248;2022-07-18T01:47:08;98115.16;;;14.67;100.00
13867;BME280;7003;46.982;15.248;2022-07-18T01:49:36;98111.44;;;14.59;100.00
13867;BME280;7003;46.982;15.248;2022-07-18T01:52:06;98107.06;;;14.54;100.00
13867;BME280;7003;46.982;15.248;2022-07-18T01:54:36;98106.94;;;14.51;100.00
13867;BME280;7003;46.982;15.248;2022-07-18T01:57:07;98108.50;;;14.52;100.00
13867;BME280;7003;46.982;15.248;2022-07-18T01:59:37;98105.88;;;14.43;100.00
13867;BME280;7003;46.982;15.248;2022-07-18T02:02:07;98104.50;;;14.37;100.00
13867;BME280;7003;46.982;15.248;2022-07-18T02:04:38;98109.56;;;14.39;100.00
13867;BME280;7003;46.982;15.248;2022-07-18T02:07:26;98112.53;;;14.37;100.00
13867;BME280;7003;46.982;15.248;2022-07-18T02:09:56;98106.94;;;14.51;100.00
13867;BME280;7003;46.982;15.248;2022-07-18T02:12:27;98113.06;;;14.51;100.00
13867;BME280;7003;46.982;15.248;2022-07-18T02:14:54;98105.34;;;14.50;100.00
13867;BME280;7003;46.982;15.248;2022-07-18T02:17:24;98110.28;;;14.48;100.00
13867;BME280;7003;46.982;15.248;2022-07-18T02:19:53;98103.41;;;14.59;100.00
13867;BME280;7003;46.982;15.248;2022-07-18T02:22:22;98108.88;;;14.42;100.00
13867;BME280;7003;46.982;15.248;2022-07-18T02:24:50;98107.28;;;14.20;100.00
13867;BME280;7003;46.982;15.248;2022-07-18T02:27:19;98108.78;;;14.09;100.00
13867;BME280;7003;46.982;15.248;2022-07-18T02:29:50;98112.59;;;13.99;100.00
13867;BME280;7003;46.982;15.248;2022-07-18T02:32:18;98116.03;;;14.08;100.00
13867;BME280;7003;46.982;15.248;2022-07-18T02:34:45;98111.03;;;13.98;100.00
13867;BME280;7003;46.982;15.248;2022-07-18T02:37:15;98112.56;;;14.08;100.00
13867;BME280;7003;46.982;15.248;2022-07-18T02:39:43;98109.09;;;14.07;100.00
13867;BME280;7003;46.982;15.248;2022-07-18T02:42:12;98109.81;;;13.87;100.00
13867;BME280;7003;46.982;15.248;2022-07-18T02:44:42;98111.63;;;13.74;100.00
13867;BME280;7003;46.982;15.248;2022-07-18T02:47:19;98113.44;;;13.91;100.00
13867;BME280;7003;46.982;15.248;2022-07-18T02:49:46;98102.38;;;14.01;100.00
13867;BME280;7003;46.982;15.248;2022-07-18T02:52:14;98110.75;;;13.91;100.00
13867;BME280;7003;46.982;15.248;2022-07-18T02:54:44;98113.56;;;13.95;100.00
13867;BME280;7003;46.982;15.248;2022-07-18T02:57:33;98114.25;;;13.83;100.00
13867;BME280;7003;46.982;15.248;2022-07-18T03:00:01;98110.19;;;13.77;100.00
13867;BME280;7003;46.982;15.248;2022-07-18T03:02:33;98110.72;;;13.70;100.00
13867;BME280;7003;46.982;15.248;2022-07-18T03:05:05;98110.53;;;13.75;100.00
13867;BME280;7003;46.982;15.248;2022-07-18T03:07:35;98105.84;;;13.64;100.00
13867;BME280;7003;46.982;15.248;2022-07-18T03:10:04;98105.72;;;13.60;100.00
13867;BME280;7003;46.982;15.248;2022-07-18T03:12:32;98104.94;;;13.60;100.00
13867;BME280;7003;46.982;15.248;2022-07-18T03:15:03;98114.22;;;13.54;100.00
13867;BME280;7003;46.982;15.248;2022-07-18T03:17:33;98103.97;;;13.56;100.00
13867;BME280;7003;46.982;15.248;2022-07-18T03:20:01;98110.63;;;13.49;100.00
13867;BME280;7003;46.982;15.248;2022-07-18T03:22:30;98115.03;;;13.45;100.00
13867;BME280;7003;46.982;15.248;2022-07-18T03:25:00;98115.19;;;13.49;100.00
13867;BME280;7003;46.982;15.248;2022-07-18T03:27:28;98109.03;;;13.48;100.00
13867;BME280;7003;46.982;15.248;2022-07-18T03:30:00;98112.81;;;13.47;100.00
13867;BME280;7003;46.982;15.248;2022-07-18T03:32:28;98116.25;;;13.57;100.00
13867;BME280;7003;46.982;15.248;2022-07-18T03:34:57;98111.69;;;13.57;100.00
13867;BME280;7003;46.982;15.248;2022-07-18T03:37:25;98116.81;;;13.71;100.00
13867;BME280;7003;46.982;15.248;2022-07-18T03:39:56;98117.56;;;13.80;100.00
13867;BME280;7003;46.982;15.248;2022-07-18T03:42:25;98115.47;;;13.56;100.00
13867;BME280;7003;46.982;15.248;2022-07-18T03:44:55;98124.91;;;13.54;100.00
13867;BME280;7003;46.982;15.248;2022-07-18T03:47:26;98114.19;;;13.62;100.00
13867;BME280;7003;46.982;15.248;2022-07-18T03:49:59;98119.69;;;13.66;100.00
13867;BME280;7003;46.982;15.248;2022-07-18T03:52:27;98127.38;;;13.67;100.00
13867;BME280;7003;46.982;15.248;2022-07-18T03:54:56;98125.00;;;13.74;100.00
13867;BME280;7003;46.982;15.248;2022-07-18T03:57:27;98126.81;;;13.91;100.00
13867;BME280;7003;46.982;15.248;2022-07-18T03:59:58;98124.09;;;13.62;100.00
13867;BME280;7003;46.982;15.248;2022-07-18T04:02:26;98122.03;;;13.67;100.00
13867;BME280;7003;46.982;15.248;2022-07-18T04:04:56;98116.50;;;13.72;100.00
13867;BME280;7003;46.982;15.248;2022-07-18T04:07:28;98117.88;;;13.78;100.00
13867;BME280;7003;46.982;15.248;2022-07-18T04:09:56;98121.69;;;13.77;100.00
13867;BME280;7003;46.982;15.248;2022-07-18T04:12:27;98119.88;;;13.90;100.00
13867;BME280;7003;46.982;15.248;2022-07-18T04:14:59;98117.84;;;13.87;100.00
13867;BME280;7003;46.982;15.248;2022-07-18T04:17:35;98119.38;;;13.97;100.00
13867;BME280;7003;46.982;15.248;2022-07-18T04:20:09;98119.88;;;13.90;100.00
13867;BME280;7003;46.982;15.248;2022-07-18T04:22:48;98124.75;;;13.88;100.00
13867;BME280;7003;46.982;15.248;2022-07-18T04:25:22;98121.72;;;13.98;100.00
13867;BME280;7003;46.982;15.248;2022-07-18T04:27:54;98133.63;;;14.09;100.00
13867;BME280;7003;46.982;15.248;2022-07-18T04:30:27;98124.94;;;14.12;100.00
13867;BME280;7003;46.982;15.248;2022-07-18T04:33:00;98121.91;;;14.22;100.00
13867;BME280;7003;46.982;15.248;2022-07-18T04:35:31;98128.94;;;14.27;100.00
13867;BME280;7003;46.982;15.248;2022-07-18T04:38:04;98128.44;;;14.34;100.00
13867;BME280;7003;46.982;15.248;2022-07-18T04:40:32;98129.09;;;14.31;100.00
13867;BME280;7003;46.982;15.248;2022-07-18T04:43:01;98137.63;;;14.53;100.00
13867;BME280;7003;46.982;15.248;2022-07-18T04:45:32;98132.84;;;14.59;100.00
13867;BME280;7003;46.982;15.248;2022-07-18T04:48:03;98134.09;;;14.61;100.00
13867;BME280;7003;46.982;15.248;2022-07-18T04:50:32;98141.34;;;14.61;100.00
13867;BME280;7003;46.982;15.248;2022-07-18T04:53:03;98136.19;;;14.77;100.00
13867;BME280;7003;46.982;15.248;2022-07-18T04:55:34;98143.69;;;14.83;100.00
13867;BME280;7003;46.982;15.248;2022-07-18T04:58:02;98135.91;;;14.90;100.00
13867;BME280;7003;46.982;15.248;2022-07-18T05:00:44;98132.22;;;15.16;100.00
13867;BME280;7003;46.982;15.248;2022-07-18T05:03:15;98133.72;;;15.37;100.00
13867;BME280;7003;46.982;15.248;2022-07-18T05:05:45;98134.09;;;15.48;100.00
13867;BME280;7003;46.982;15.248;2022-07-18T05:08:15;98141.09;;;15.86;100.00
13867;BME280;7003;46.982;15.248;2022-07-18T05:10:44;98127.78;;;16.01;100.00
13867;BME280;7003;46.982;15.248;2022-07-18T05:13:12;98132.03;;;16.14;100.00
13867;BME280;7003;46.982;15.248;2022-07-18T05:15:42;98133.44;;;16.48;100.00
13867;BME280;7003;46.982;15.248;2022-07-18T05:18:13;98133.09;;;16.90;100.00
13867;BME280;7003;46.982;15.248;2022-07-18T05:20:44;98127.66;;;17.30;100.00
13867;BME280;7003;46.982;15.248;2022-07-18T05:23:18;98124.97;;;17.46;100.00
13867;BME280;7003;46.982;15.248;2022-07-18T05:25:52;98129.72;;;17.64;100.00
13867;BME280;7003;46.982;15.248;2022-07-18T05:28:24;98125.63;;;17.71;100.00
13867;BME280;7003;46.982;15.248;2022-07-18T05:30:55;98126.13;;;18.07;100.00
13867;BME280;7003;46.982;15.248;2022-07-18T05:33:27;98119.44;;;18.36;100.00
13867;BME280;7003;46.982;15.248;2022-07-18T05:35:59;98120.47;;;18.48;100.00
13867;BME280;7003;46.982;15.248;2022-07-18T05:38:35;98116.75;;;18.71;100.00
13867;BME280;7003;46.982;15.248;2022-07-18T05:41:06;98115.09;;;19.05;100.00
13867;BME280;7003;46.982;15.248;2022-07-18T05:43:35;98116.31;;;19.27;100.00
13867;BME280;7003;46.982;15.248;2022-07-18T05:46:03;98114.56;;;19.57;100.00
13867;BME280;7003;46.982;15.248;2022-07-18T05:48:34;98118.06;;;19.84;100.00
13867;BME280;7003;46.982;15.248;2022-07-18T05:51:02;98119.59;;;20.08;100.00
13867;BME280;7003;46.982;15.248;2022-07-18T05:53:33;98120.28;;;20.28;100.00
13867;BME280;7003;46.982;15.248;2022-07-18T05:56:01;98112.75;;;20.41;100.00
13867;BME280;7003;46.982;15.248;2022-07-18T05:58:29;98109.03;;;20.52;100.00
13867;BME280;7003;46.982;15.248;2022-07-18T06:00:57;98117.13;;;20.52;100.00
13867;BME280;7003;46.982;15.248;2022-07-18T06:03:24;98103.84;;;20.70;100.00
13867;BME280;7003;46.982;15.248;2022-07-18T06:05:52;98109.09;;;20.89;100.00
13867;BME280;7003;46.982;15.248;2022-07-18T06:08:19;98119.31;;;21.03;100.00
13867;BME280;7003;46.982;15.248;2022-07-18T06:10:51;98119.31;;;21.06;100.00
13867;BME280;7003;46.982;15.248;2022-07-18T06:13:22;98108.00;;;21.27;100.00
13867;BME280;7003;46.982;15.248;2022-07-18T06:15:49;98108.84;;;21.35;100.00
13867;BME280;7003;46.982;15.248;2022-07-18T06:18:17;98108.16;;;21.45;100.00
13867;BME280;7003;46.982;15.248;2022-07-18T06:20:44;98108.56;;;21.47;100.00
13867;BME280;7003;46.982;15.248;2022-07-18T06:23:12;98111.84;;;21.67;100.00
13867;BME280;7003;46.982;15.248;2022-07-18T06:25:40;98120.50;;;21.86;100.00
13867;BME280;7003;46.982;15.248;2022-07-18T06:28:11;98108.94;;;21.89;100.00
13867;BME280;7003;46.982;15.248;2022-07-18T06:30:39;98111.72;;;21.97;100.00
13867;BME280;7003;46.982;15.248;2022-07-18T06:33:09;98108.19;;;21.96;100.00
13867;BME280;7003;46.982;15.248;2022-07-18T06:35:38;98112.22;;;22.16;100.00
13867;BME280;7003;46.982;15.248;2022-07-18T06:38:08;98111.47;;;22.23;100.00
13867;BME280;7003;46.982;15.248;2022-07-18T06:40:36;98100.06;;;22.58;100.00
13867;BME280;7003;46.982;15.248;2022-07-18T06:43:06;98109.53;;;22.96;100.00
13867;BME280;7003;46.982;15.248;2022-07-18T06:45:35;98105.28;;;23.02;100.00
13867;BME280;7003;46.982;15.248;2022-07-18T06:48:07;98104.91;;;22.96;100.00
13867;BME280;7003;46.982;15.248;2022-07-18T06:50:38;98095.63;;;23.12;100.00
13867;BME280;7003;46.982;15.248;2022-07-18T06:53:05;98104.19;;;23.28;100.00
13867;BME280;7003;46.982;15.248;2022-07-18T06:55:33;98094.50;;;23.41;100.00
13867;BME280;7003;46.982;15.248;2022-07-18T06:58:01;98096.50;;;23.55;100.00
13867;BME280;7003;46.982;15.248;2022-07-18T07:00:29;98096.50;;;23.55;100.00
13867;BME280;7003;46.982;15.248;2022-07-18T07:02:58;98092.63;;;23.56;100.00
13867;BME280;7003;46.982;15.248;2022-07-18T07:05:25;98088.72;;;23.99;100.00
13867;BME280;7003;46.982;15.248;2022-07-18T07:07:55;98094.13;;;24.31;100.00
13867;BME280;7003;46.982;15.248;2022-07-18T07:10:26;98091.00;;;24.33;100.00
13867;BME280;7003;46.982;15.248;2022-07-18T07:12:53;98092.50;;;24.55;100.00
13867;BME280;7003;46.982;15.248;2022-07-18T07:15:23;98089.28;;;24.81;100.00
13867;BME280;7003;46.982;15.248;2022-07-18T07:17:53;98083.41;;;24.86;100.00
13867;BME280;7003;46.982;15.248;2022-07-18T07:20:25;98081.09;;;24.92;100.00
13867;BME280;7003;46.982;15.248;2022-07-18T07:22:56;98079.44;;;25.09;100.00
13867;BME280;7003;46.982;15.248;2022-07-18T07:25:27;98082.63;;;24.97;100.00
13867;BME280;7003;46.982;15.248;2022-07-18T07:27:54;98086.91;;;24.94;100.00
13867;BME280;7003;46.982;15.248;2022-07-18T07:30:24;98080.19;;;25.13;100.00
13867;BME280;7003;46.982;15.248;2022-07-18T07:32:51;98086.22;;;25.45;100.00
13867;BME280;7003;46.982;15.248;2022-07-18T07:35:22;98075.66;;;25.54;100.00
13867;BME280;7003;46.982;15.248;2022-07-18T07:37:52;98070.09;;;25.68;98.21
13867;BME280;7003;46.982;15.248;2022-07-18T07:40:24;98069.66;;;25.77;80.95
13867;BME280;7003;46.982;15.248;2022-07-18T07:43:04;98072.13;;;26.02;68.49
13867;BME280;7003;46.982;15.248;2022-07-18T07:45:32;98065.53;;;25.55;64.94
13867;BME280;7003;46.982;15.248;2022-07-18T07:48:00;98075.88;;;25.19;67.82
13867;BME280;7003;46.982;15.248;2022-07-18T07:50:29;98074.59;;;25.38;71.76
13867;BME280;7003;46.982;15.248;2022-07-18T07:52:59;98077.28;;;25.41;68.74
13867;BME280;7003;46.982;15.248;2022-07-18T07:55:30;98069.78;;;25.59;67.94
13867;BME280;7003;46.982;15.248;2022-07-18T07:57:57;98063.47;;;25.70;64.87
13867;BME280;7003;46.982;15.248;2022-07-18T08:00:24;98055.13;;;25.39;64.88
13867;BME280;7003;46.982;15.248;2022-07-18T08:02:55;98066.34;;;25.48;67.60
13867;BME280;7003;46.982;15.248;2022-07-18T08:05:23;98060.78;;;25.66;62.60
13867;BME280;7003;46.982;15.248;2022-07-18T08:07:51;98064.47;;;25.86;64.07
13867;BME280;7003;46.982;15.248;2022-07-18T08:10:23;98057.59;;;26.12;62.20
13867;BME280;7003;46.982;15.248;2022-07-18T08:12:51;98053.72;;;26.13;62.22
13867;BME280;7003;46.982;15.248;2022-07-18T08:15:21;98059.72;;;26.69;62.31
13867;BME280;7003;46.982;15.248;2022-07-18T08:17:50;98053.59;;;26.88;59.91
13867;BME280;7003;46.982;15.248;2022-07-18T08:20:17;98050.09;;;27.18;61.99
13867;BME280;7003;46.982;15.248;2022-07-18T08:22:55;98057.91;;;26.21;58.24
13867;BME280;7003;46.982;15.248;2022-07-18T08:25:28;98054.09;;;26.15;61.77
13867;BME280;7003;46.982;15.248;2022-07-18T08:28:00;98055.75;;;26.73;60.41
13867;BME280;7003;46.982;15.248;2022-07-18T08:30:30;98060.09;;;27.01;58.98
13867;BME280;7003;46.982;15.248;2022-07-18T08:33:00;98058.59;;;27.24;58.82
13867;BME280;7003;46.982;15.248;2022-07-18T08:35:32;98065.28;;;27.46;60.10
13867;BME280;7003;46.982;15.248;2022-07-18T08:38:03;98059.13;;;27.65;60.54
13867;BME280;7003;46.982;15.248;2022-07-18T08:40:35;98061.94;;;27.35;57.97
13867;BME280;7003;46.982;15.248;2022-07-18T08:43:06;98055.28;;;27.63;58.09
13867;BME280;7003;46.982;15.248;2022-07-18T08:45:37;98057.78;;;27.77;54.47
13867;BME280;7003;46.982;15.248;2022-07-18T08:48:05;98058.47;;;27.81;54.50
13867;BME280;7003;46.982;15.248;2022-07-18T08:50:32;98053.41;;;28.03;54.75
13867;BME280;7003;46.982;15.248;2022-07-18T08:53:02;98048.50;;;27.94;54.68
13867;BME280;7003;46.982;15.248;2022-07-18T08:55:34;98053.59;;;28.15;54.66
13867;BME280;7003;46.982;15.248;2022-07-18T08:58:04;98039.72;;;28.26;52.07
13867;BME280;7003;46.982;15.248;2022-07-18T09:00:34;98046.78;;;28.43;51.83
13867;BME280;7003;46.982;15.248;2022-07-18T09:03:03;98046.88;;;28.40;50.81
13867;BME280;7003;46.982;15.248;2022-07-18T09:05:31;98038.50;;;28.27;50.58
13867;BME280;7003;46.982;15.248;2022-07-18T09:08:10;98046.78;;;28.43;51.27
13867;BME280;7003;46.982;15.248;2022-07-18T09:10:48;98049.97;;;27.99;52.44
13867;BME280;7003;46.982;15.248;2022-07-18T09:13:17;98042.50;;;27.79;54.10
13867;BME280;7003;46.982;15.248;2022-07-18T09:16:02;98036.47;;;27.88;55.49
13867;BME280;7003;46.982;15.248;2022-07-18T09:18:31;98041.97;;;26.84;53.24
13867;BME280;7003;46.982;15.248;2022-07-18T09:21:02;98037.06;;;26.72;55.89
13867;BME280;7003;46.982;15.248;2022-07-18T09:23:32;98037.88;;;27.26;55.49
13867;BME280;7003;46.982;15.248;2022-07-18T09:26:01;98034.50;;;27.42;54.80
13867;BME280;7003;46.982;15.248;2022-07-18T09:28:45;98039.63;;;27.13;52.07
13867;BME280;7003;46.982;15.248;2022-07-18T09:31:20;98030.03;;;27.55;54.91
13867;BME280;7003;46.982;15.248;2022-07-18T09:33:54;98029.19;;;27.81;52.04
13867;BME280;7003;46.982;15.248;2022-07-18T09:36:22;98031.47;;;27.63;55.59
13867;BME280;7003;46.982;15.248;2022-07-18T09:38:49;98023.97;;;27.67;51.91
13867;BME280;7003;46.982;15.248;2022-07-18T09:41:23;98029.03;;;27.42;50.88
13867;BME280;7003;46.982;15.248;2022-07-18T09:43:54;98021.47;;;27.53;49.60
13867;BME280;7003;46.982;15.248;2022-07-18T09:46:24;98026.47;;;27.08;48.96
13867;BME280;7003;46.982;15.248;2022-07-18T09:49:09;98022.97;;;27.31;50.52
13867;BME280;7003;46.982;15.248;2022-07-18T09:51:37;98024.84;;;26.80;52.84
13867;BME280;7003;46.982;15.248;2022-07-18T09:54:05;98016.06;;;26.69;51.54
13867;BME280;7003;46.982;15.248;2022-07-18T09:56:36;98018.38;;;26.70;48.77
13867;BME280;7003;46.982;15.248;2022-07-18T09:59:08;98025.53;;;26.91;52.15
13867;BME280;7003;46.982;15.248;2022-07-18T10:01:38;98020.00;;;27.22;53.62
13867;BME280;7003;46.982;15.248;2022-07-18T10:04:06;98019.97;;;27.48;53.97
13867;BME280;7003;46.982;15.248;2022-07-18T10:06:34;98008.84;;;26.82;53.33
13867;BME280;7003;46.982;15.248;2022-07-18T10:09:07;98018.13;;;27.65;54.68
13867;BME280;7003;46.982;15.248;2022-07-18T10:11:39;98015.72;;;27.90;52.68
13867;BME280;7003;46.982;15.248;2022-07-18T10:14:09;98010.81;;;27.82;49.70
13867;BME280;7003;46.982;15.248;2022-07-18T10:16:41;98012.25;;;27.67;47.51
13867;BME280;7003;46.982;15.248;2022-07-18T10:19:11;98014.38;;;27.32;52.83
13867;BME280;7003;46.982;15.248;2022-07-18T10:21:39;98004.03;;;27.43;47.49
13867;BME280;7003;46.982;15.248;2022-07-18T10:24:09;98013.22;;;28.00;50.87
13867;BME280;7003;46.982;15.248;2022-07-18T10:26:41;98006.31;;;26.68;50.69
13867;BME280;7003;46.982;15.248;2022-07-18T10:29:20;98001.84;;;26.81;51.41
13867;BME280;7003;46.982;15.248;2022-07-18T10:32:02;98002.94;;;27.41;55.44
13867;BME280;7003;46.982;15.248;2022-07-18T10:34:32;97998.66;;;28.06;51.73
13867;BME280;7003;46.982;15.248;2022-07-18T10:37:08;98001.56;;;27.95;53.11
13867;BME280;7003;46.982;15.248;2022-07-18T10:39:37;97999.72;;;27.69;53.55
13867;BME280;7003;46.982;15.248;2022-07-18T10:42:18;97998.13;;;26.98;49.93
13867;BME280;7003;46.982;15.248;2022-07-18T10:44:47;97994.25;;;27.69;48.67
13867;BME280;7003;46.982;15.248;2022-07-18T10:47:16;97981.34;;;27.23;48.83
13867;BME280;7003;46.982;15.248;2022-07-18T10:50:07;97992.53;;;27.32;51.94
13867;BME280;7003;46.982;15.248;2022-07-18T10:53:00;97986.16;;;27.85;53.01
13867;BME280;7003;46.982;15.248;2022-07-18T10:55:32;97988.06;;;28.28;49.37
13867;BME280;7003;46.982;15.248;2022-07-18T10:58:22;97986.53;;;28.83;50.29
13867;BME280;7003;46.982;15.248;2022-07-18T11:00:59;97982.19;;;28.65;47.10
13867;BME280;7003;46.982;15.248;2022-07-18T11:03:31;97981.19;;;28.20;48.95
13867;BME280;7003;46.982;15.248;2022-07-18T11:06:03;97973.38;;;28.78;51.99
13867;BME280;7003;46.982;15.248;2022-07-18T11:08:34;97973.06;;;29.40;47.55
13867;BME280;7003;46.982;15.248;2022-07-18T11:11:05;97969.78;;;29.62;46.23
13867;BME280;7003;46.982;15.248;2022-07-18T11:13:36;97968.00;;;28.54;46.23
13867;BME280;7003;46.982;15.248;2022-07-18T11:16:09;97970.75;;;27.95;46.49
13867;BME280;7003;46.982;15.248;2022-07-18T11:19:16;97956.69;;;28.13;48.60
13867;BME280;7003;46.982;15.248;2022-07-18T11:21:57;97962.34;;;28.97;49.04
13867;BME280;7003;46.982;15.248;2022-07-18T11:24:28;97951.66;;;28.87;44.75
13867;BME280;7003;46.982;15.248;2022-07-18T11:26:58;97945.53;;;29.28;43.96
13867;BME280;7003;46.982;15.248;2022-07-18T11:29:28;97948.28;;;29.12;47.92
13867;BME280;7003;46.982;15.248;2022-07-18T11:32:00;97945.47;;;28.83;47.73
13867;BME280;7003;46.982;15.248;2022-07-18T11:34:29;97943.94;;;29.46;45.37
13867;BME280;7003;46.982;15.248;2022-07-18T11:37:11;97940.59;;;29.84;43.49
13867;BME280;7003;46.982;15.248;2022-07-18T11:39:41;97942.75;;;29.15;41.73
13867;BME280;7003;46.982;15.248;2022-07-18T11:42:09;97949.28;;;28.33;42.34
13867;BME280;7003;46.982;15.248;2022-07-18T11:44:40;97935.22;;;29.03;42.24
13867;BME280;7003;46.982;15.248;2022-07-18T11:47:11;97937.25;;;28.83;46.73
13867;BME280;7003;46.982;15.248;2022-07-18T11:49:53;97929.47;;;29.75;42.97
13867;BME280;7003;46.982;15.248;2022-07-18T11:52:22;97928.50;;;30.10;42.53
13867;BME280;7003;46.982;15.248;2022-07-18T11:54:50;97920.84;;;30.43;42.79
13867;BME280;7003;46.982;15.248;2022-07-18T11:57:26;97926.41;;;30.81;41.77
13867;BME280;7003;46.982;15.248;2022-07-18T12:00:00;97921.78;;;30.78;41.66
13867;BME280;7003;46.982;15.248;2022-07-18T12:03:09;97916.38;;;30.49;42.34
13867;BME280;7003;46.982;15.248;2022-07-18T12:05:38;97921.78;;;30.53;41.22
13867;BME280;7003;46.982;15.248;2022-07-18T12:08:26;97922.13;;;30.13;40.98
13867;BME280;7003;46.982;15.248;2022-07-18T12:11:12;97923.41;;;29.38;41.39
13867;BME280;7003;46.982;15.248;2022-07-18T12:13:49;97925.28;;;29.70;42.28
13867;BME280;7003;46.982;15.248;2022-07-18T12:16:30;97916.28;;;30.53;41.45
13867;BME280;7003;46.982;15.248;2022-07-18T12:18:59;97917.06;;;30.79;42.03
13867;BME280;7003;46.982;15.248;2022-07-18T12:21:44;97917.16;;;30.50;39.91
13867;BME280;7003;46.982;15.248;2022-07-18T12:24:28;97917.81;;;30.79;40.21
13867;BME280;7003;46.982;15.248;2022-07-18T12:27:11;97914.16;;;31.20;38.80
13867;BME280;7003;46.982;15.248;2022-07-18T12:30:05;97908.44;;;31.15;39.31
13867;BME280;7003;46.982;15.248;2022-07-18T12:32:40;97896.25;;;30.90;38.60
13867;BME280;7003;46.982;15.248;2022-07-18T12:35:12;97905.94;;;29.90;38.80
13867;BME280;7003;46.982;15.248;2022-07-18T12:37:41;97914.81;;;30.23;40.04
13867;BME280;7003;46.982;15.248;2022-07-18T12:40:18;97905.06;;;31.11;38.86
13867;BME280;7003;46.982;15.248;2022-07-18T12:42:48;97899.19;;;30.07;37.61
13867;BME280;7003;46.982;15.248;2022-07-18T12:45:16;97896.66;;;30.00;38.81
13867;BME280;7003;46.982;15.248;2022-07-18T12:47:46;97899.94;;;29.95;41.01
13867;BME280;7003;46.982;15.248;2022-07-18T12:50:14;97895.25;;;29.96;38.98
13867;BME280;7003;46.982;15.248;2022-07-18T12:52:42;97894.91;;;29.94;38.75
13867;BME280;7003;46.982;15.248;2022-07-18T12:55:10;97894.50;;;29.79;41.12
13867;BME280;7003;46.982;15.248;2022-07-18T12:57:41;97896.38;;;30.11;40.06
13867;BME280;7003;46.982;15.248;2022-07-18T13:00:10;97887.31;;;29.56;39.99
13867;BME280;7003;46.982;15.248;2022-07-18T13:02:42;97893.78;;;29.62;41.79
13867;BME280;7003;46.982;15.248;2022-07-18T13:05:12;97887.91;;;30.18;39.67
13867;BME280;7003;46.982;15.248;2022-07-18T13:07:41;97880.69;;;30.87;39.28
13867;BME280;7003;46.982;15.248;2022-07-18T13:10:11;97886.25;;;31.09;36.72
13867;BME280;7003;46.982;15.248;2022-07-18T13:12:41;97875.59;;;29.39;38.12
13867;BME280;7003;46.982;15.248;2022-07-18T13:15:12;97878.31;;;29.97;40.79
13867;BME280;7003;46.982;15.248;2022-07-18T13:17:40;97876.06;;;30.84;39.05